sensor_id;sensor_type;location;lat;lon;timestamp;temperature;humidity
41939;DHT22;23057;48.554;14.454;2024-03-29T00:02:14;2.00;99.90
41939;DHT22;23057;48.554;14.454;2024-03-29T00:04:45;1.90;99.90
41939;DHT22;23057;48.554;14.454;2024-03-29T00:07:16;1.90;99.90
41939;DHT22;23057;48.554;14.454;2024-03-29T00:09:46;1.80;99.90
41939;DHT22;23057;48.554;14.454;2024-03-29T00:12:17;1.80;99.90
41939;DHT22;23057;48.554;14.454;2024-03-29T00:14:48;2.00;99.90
41939;DHT22;23057;48.554;14.454;2024-03-29T00:17:19;2.00;99.90
41939;DHT22;23057;48.554;14.454;2024-03-29T00:19:50;2.00;99.90
41939;DHT22;23057;48.554;14.454;2024-03-29T00:22:21;2.10;99.90
41939;DHT22;23057;48.554;14.454;2024-03-29T00:24:52;2.10;99.90
41939;DHT22;23057;48.554;14.454;2024-03-29T00:27:22;1.90;99.90
41939;DHT22;23057;48.554;14.454;2024-03-29T00:29:55;1.90;99.90
41939;DHT22;23057;48.554;14.454;2024-03-29T00:32:26;1.90;99.90
41939;DHT22;23057;48.554;14.454;2024-03-29T00:34:57;2.00;99.90
41939;DHT22;23057;48.554;14.454;2024-03-29T00:37:28;2.00;99.90
41939;DHT22;23057;48.554;14.454;2024-03-29T00:39:59;1.90;99.90
41939;DHT22;23057;48.554;14.454;2024-03-29T00:42:30;1.80;99.90
41939;DHT22;23057;48.554;14.454;2024-03-29T00:45:01;1.70;99.90
41939;DHT22;23057;48.554;14.454;2024-03-29T00:47:31;1.60;99.90
41939;DHT22;23057;48.554;14.454;2024-03-29T00:50:03;1.60;99.90
41939;DHT22;23057;48.554;14.454;2024-03-29T00:52:34;1.60;99.90
41939;DHT22;23057;48.554;14.454;2024-03-29T00:55:06;1.50;99.90
41939;DHT22;23057;48.554;14.454;2024-03-29T00:57:37;1.50;99.90
41939;DHT22;23057;48.554;14.454;2024-03-29T01:00:08;1.50;99.90
41939;DHT22;23057;48.554;14.454;2024-03-29T01:02:40;1.50;99.90
41939;DHT22;23057;48.554;14.454;2024-03-29T01:05:11;1.40;99.90
41939;DHT22;23057;48.554;14.454;2024-03-29T01:07:42;1.40;99.90
41939;DHT22;23057;48.554;14.454;2024-03-29T01:10:13;1.20;99.90
41939;DHT22;23057;48.554;14.454;2024-03-29T01:12:44;1.30;99.90
41939;DHT22;23057;48.554;14.454;2024-03-29T01:15:16;1.50;99.90
41939;DHT22;23057;48.554;14.454;2024-03-29T01:17:47;1.50;99.90
41939;DHT22;23057;48.554;14.454;2024-03-29T01:20:18;1.40;99.90
41939;DHT22;23057;48.554;14.454;2024-03-29T01:22:49;1.50;99.90
41939;DHT22;23057;48.554;14.454;2024-03-29T01:25:19;1.40;99.90
41939;DHT22;23057;48.554;14.454;2024-03-29T01:27:51;1.40;99.90
41939;DHT22;23057;48.554;14.454;2024-03-29T01:30:22;1.40;99.90
41939;DHT22;23057;48.554;14.454;2024-03-29T01:32:53;1.40;99.90
41939;DHT22;23057;48.554;14.454;2024-03-29T01:35:24;1.40;99.90
41939;DHT22;23057;48.554;14.454;2024-03-29T01:37:55;1.40;99.90
41939;DHT22;23057;48.554;14.454;2024-03-29T01:40:25;1.40;99.90
41939;DHT22;23057;48.554;14.454;2024-03-29T01:42:56;1.40;99.90
41939;DHT22;23057;48.554;14.454;2024-03-29T01:45:27;1.30;99.90
41939;DHT22;23057;48.554;14.454;2024-03-29T01:48:01;1.30;99.90
41939;DHT22;23057;48.554;14.454;2024-03-29T01:50:32;0.90;99.90
41939;DHT22;23057;48.554;14.454;2024-03-29T01:53:05;0.80;99.90
41939;DHT22;23057;48.554;14.454;2024-03-29T01:55:39;0.90;99.90
41939;DHT22;23057;48.554;14.454;2024-03-29T01:58:11;0.90;99.90
41939;DHT22;23057;48.554;14.454;2024-03-29T02:00:55;0.90;99.90
41939;DHT22;23057;48.554;14.454;2024-03-29T02:03:30;1.00;99.90
41939;DHT22;23057;48.554;14.454;2024-03-29T02:06:01;1.10;99.90
41939;DHT22;23057;48.554;14.454;2024-03-29T02:08:33;1.20;99.90
41939;DHT22;23057;48.554;14.454;2024-03-29T02:11:04;1.20;99.90
41939;DHT22;23057;48.554;14.454;2024-03-29T02:13:37;1.20;99.90
41939;DHT22;23057;48.554;14.454;2024-03-29T02:16:08;1.20;99.90
41939;DHT22;23057;48.554;14.454;2024-03-29T02:18:38;1.10;99.90
41939;DHT22;23057;48.554;14.454;2024-03-29T02:21:09;0.80;99.90
41939;DHT22;23057;48.554;14.454;2024-03-29T02:23:46;0.40;99.90
41939;DHT22;23057;48.554;14.454;2024-03-29T02:26:26;0.40;99.90
41939;DHT22;23057;48.554;14.454;2024-03-29T02:29:02;0.50;99.90
41939;DHT22;23057;48.554;14.454;2024-03-29T02:31:33;0.60;99.90
41939;DHT22;23057;48.554;14.454;2024-03-29T02:34:04;0.60;99.90
41939;DHT22;23057;48.554;14.454;2024-03-29T02:36:37;0.60;99.90
41939;DHT22;23057;48.554;14.454;2024-03-29T02:39:08;0.70;99.90
41939;DHT22;23057;48.554;14.454;2024-03-29T02:41:39;0.80;99.90
41939;DHT22;23057;48.554;14.454;2024-03-29T02:44:10;0.90;99.90
41939;DHT22;23057;48.554;14.454;2024-03-29T02:46:42;0.90;99.90
41939;DHT22;23057;48.554;14.454;2024-03-29T02:49:13;0.90;99.90
41939;DHT22;23057;48.554;14.454;2024-03-29T02:51:43;0.80;99.90
41939;DHT22;23057;48.554;14.454;2024-03-29T02:54:15;0.50;99.90
41939;DHT22;23057;48.554;14.454;2024-03-29T02:56:45;0.20;99.90
41939;DHT22;23057;48.554;14.454;2024-03-29T02:59:16;0.20;99.90
41939;DHT22;23057;48.554;14.454;2024-03-29T03:01:47;0.30;99.90
41939;DHT22;23057;48.554;14.454;2024-03-29T03:04:18;0.30;99.90
41939;DHT22;23057;48.554;14.454;2024-03-29T03:06:49;0.20;99.90
41939;DHT22;23057;48.554;14.454;2024-03-29T03:09:19;0.20;99.90
41939;DHT22;23057;48.554;14.454;2024-03-29T03:12:09;0.20;99.90
41939;DHT22;23057;48.554;14.454;2024-03-29T03:14:41;0.30;99.90
41939;DHT22;23057;48.554;14.454;2024-03-29T03:17:12;0.30;99.90
41939;DHT22;23057;48.554;14.454;2024-03-29T03:19:43;0.20;99.90
41939;DHT22;23057;48.554;14.454;2024-03-29T03:22:14;0.00;99.90
41939;DHT22;23057;48.554;14.454;2024-03-29T03:24:45;-0.10;99.90
41939;DHT22;23057;48.554;14.454;2024-03-29T03:27:16;-0.10;99.90
41939;DHT22;23057;48.554;14.454;2024-03-29T03:29:47;0.00;99.90
41939;DHT22;23057;48.554;14.454;2024-03-29T03:32:17;0.00;99.90
41939;DHT22;23057;48.554;14.454;2024-03-29T03:34:48;0.10;99.90
41939;DHT22;23057;48.554;14.454;2024-03-29T03:37:19;0.20;99.90
41939;DHT22;23057;48.554;14.454;2024-03-29T03:39:50;0.30;99.90
41939;DHT22;23057;48.554;14.454;2024-03-29T03:42:21;0.30;99.90
41939;DHT22;23057;48.554;14.454;2024-03-29T03:44:51;0.20;99.90
41939;DHT22;23057;48.554;14.454;2024-03-29T03:47:22;-0.20;99.90
41939;DHT22;23057;48.554;14.454;2024-03-29T03:49:53;-0.40;99.90
41939;DHT22;23057;48.554;14.454;2024-03-29T03:52:24;-0.40;99.90
41939;DHT22;23057;48.554;14.454;2024-03-29T03:54:55;-0.40;99.90
41939;DHT22;23057;48.554;14.454;2024-03-29T03:57:26;-0.20;99.90
41939;DHT22;23057;48.554;14.454;2024-03-29T03:59:57;-0.10;99.90
41939;DHT22;23057;48.554;14.454;2024-03-29T04:02:27;-0.10;99.90
41939;DHT22;23057;48.554;14.454;2024-03-29T04:04:59;0.00;99.90
41939;DHT22;23057;48.554;14.454;2024-03-29T04:07:29;0.10;99.90
41939;DHT22;23057;48.554;14.454;2024-03-29T04:10:00;0.20;99.90
41939;DHT22;23057;48.554;14.454;2024-03-29T04:12:31;0.10;99.90
41939;DHT22;23057;48.554;14.454;2024-03-29T04:15:02;-0.10;99.90
41939;DHT22;23057;48.554;14.454;2024-03-29T04:17:35;-0.20;99.90
41939;DHT22;23057;48.554;14.454;2024-03-29T04:20:06;-0.10;99.90
41939;DHT22;23057;48.554;14.454;2024-03-29T04:22:37;0.00;99.90
41939;DHT22;23057;48.554;14.454;2024-03-29T04:25:08;0.00;99.90
41939;DHT22;23057;48.554;14.454;2024-03-29T04:27:39;0.10;99.90
41939;DHT22;23057;48.554;14.454;2024-03-29T04:30:10;0.20;99.90
41939;DHT22;23057;48.554;14.454;2024-03-29T04:32:41;0.40;99.90
41939;DHT22;23057;48.554;14.454;2024-03-29T04:35:12;0.40;99.90
41939;DHT22;23057;48.554;14.454;2024-03-29T04:37:43;0.20;99.90
41939;DHT22;23057;48.554;14.454;2024-03-29T04:40:14;-0.10;99.90
41939;DHT22;23057;48.554;14.454;2024-03-29T04:42:45;-0.10;99.90
41939;DHT22;23057;48.554;14.454;2024-03-29T04:45:15;0.00;99.90
41939;DHT22;23057;48.554;14.454;2024-03-29T04:47:46;0.10;99.90
41939;DHT22;23057;48.554;14.454;2024-03-29T04:50:17;0.40;99.90
41939;DHT22;23057;48.554;14.454;2024-03-29T04:52:48;0.50;99.90
41939;DHT22;23057;48.554;14.454;2024-03-29T04:55:19;0.60;99.90
41939;DHT22;23057;48.554;14.454;2024-03-29T04:57:50;0.50;99.90
41939;DHT22;23057;48.554;14.454;2024-03-29T05:00:21;0.50;99.90
41939;DHT22;23057;48.554;14.454;2024-03-29T05:02:52;0.60;99.90
41939;DHT22;23057;48.554;14.454;2024-03-29T05:05:23;1.40;99.90
41939;DHT22;23057;48.554;14.454;2024-03-29T05:07:53;2.70;99.90
41939;DHT22;23057;48.554;14.454;2024-03-29T05:10:25;3.60;99.90
41939;DHT22;23057;48.554;14.454;2024-03-29T05:12:55;4.70;99.90
41939;DHT22;23057;48.554;14.454;2024-03-29T05:15:26;5.50;99.90
41939;DHT22;23057;48.554;14.454;2024-03-29T05:17:57;6.60;99.90
41939;DHT22;23057;48.554;14.454;2024-03-29T05:20:32;7.20;99.90
41939;DHT22;23057;48.554;14.454;2024-03-29T05:23:03;8.70;99.90
41939;DHT22;23057;48.554;14.454;2024-03-29T05:25:34;9.10;99.90
41939;DHT22;23057;48.554;14.454;2024-03-29T05:28:05;9.90;99.90
41939;DHT22;23057;48.554;14.454;2024-03-29T05:30:37;11.30;99.90
41939;DHT22;23057;48.554;14.454;2024-03-29T05:33:08;12.90;99.90
41939;DHT22;23057;48.554;14.454;2024-03-29T05:35:39;13.70;99.90
41939;DHT22;23057;48.554;14.454;2024-03-29T05:38:10;13.60;99.90
41939;DHT22;23057;48.554;14.454;2024-03-29T05:40:41;12.80;1.00
41939;DHT22;23057;48.554;14.454;2024-03-29T05:43:12;12.00;99.90
41939;DHT22;23057;48.554;14.454;2024-03-29T05:45:43;12.20;99.90
41939;DHT22;23057;48.554;14.454;2024-03-29T05:48:13;13.20;99.90
41939;DHT22;23057;48.554;14.454;2024-03-29T05:50:45;13.10;99.90
41939;DHT22;23057;48.554;14.454;2024-03-29T05:53:15;13.40;99.90
41939;DHT22;23057;48.554;14.454;2024-03-29T05:55:46;12.80;99.90
41939;DHT22;23057;48.554;14.454;2024-03-29T05:58:17;12.90;99.90
41939;DHT22;23057;48.554;14.454;2024-03-29T06:00:49;13.30;99.90
41939;DHT22;23057;48.554;14.454;2024-03-29T06:03:19;13.30;99.90
41939;DHT22;23057;48.554;14.454;2024-03-29T06:05:50;13.80;99.90
41939;DHT22;23057;48.554;14.454;2024-03-29T06:08:21;14.00;99.90
41939;DHT22;23057;48.554;14.454;2024-03-29T06:10:54;14.00;99.90
41939;DHT22;23057;48.554;14.454;2024-03-29T06:13:25;15.00;99.90
41939;DHT22;23057;48.554;14.454;2024-03-29T06:16:15;17.00;99.90
41939;DHT22;23057;48.554;14.454;2024-03-29T06:19:04;17.80;99.90
41939;DHT22;23057;48.554;14.454;2024-03-29T06:21:35;16.50;99.90
41939;DHT22;23057;48.554;14.454;2024-03-29T06:24:10;15.80;99.90
41939;DHT22;23057;48.554;14.454;2024-03-29T06:26:42;14.40;99.90
41939;DHT22;23057;48.554;14.454;2024-03-29T06:29:13;14.20;99.90
41939;DHT22;23057;48.554;14.454;2024-03-29T06:31:44;13.90;99.90
41939;DHT22;23057;48.554;14.454;2024-03-29T06:34:15;14.60;99.90
41939;DHT22;23057;48.554;14.454;2024-03-29T06:36:46;15.10;99.90
41939;DHT22;23057;48.554;14.454;2024-03-29T06:39:16;14.70;99.90
41939;DHT22;23057;48.554;14.454;2024-03-29T06:41:47;14.30;99.90
41939;DHT22;23057;48.554;14.454;2024-03-29T06:44:18;14.60;99.90
41939;DHT22;23057;48.554;14.454;2024-03-29T06:46:50;14.90;99.90
41939;DHT22;23057;48.554;14.454;2024-03-29T06:49:21;15.80;99.90
41939;DHT22;23057;48.554;14.454;2024-03-29T06:51:52;16.30;99.90
41939;DHT22;23057;48.554;14.454;2024-03-29T06:54:24;15.40;99.90
41939;DHT22;23057;48.554;14.454;2024-03-29T06:56:57;14.00;99.90
41939;DHT22;23057;48.554;14.454;2024-03-29T06:59:28;13.50;99.90
41939;DHT22;23057;48.554;14.454;2024-03-29T07:02:03;13.60;99.90
41939;DHT22;23057;48.554;14.454;2024-03-29T07:04:34;13.70;99.90
41939;DHT22;23057;48.554;14.454;2024-03-29T07:07:05;13.00;99.90
41939;DHT22;23057;48.554;14.454;2024-03-29T07:09:36;12.10;99.90
41939;DHT22;23057;48.554;14.454;2024-03-29T07:12:06;12.40;99.90
41939;DHT22;23057;48.554;14.454;2024-03-29T07:14:37;12.10;99.90
41939;DHT22;23057;48.554;14.454;2024-03-29T07:17:08;11.90;99.90
41939;DHT22;23057;48.554;14.454;2024-03-29T07:19:39;11.90;99.90
41939;DHT22;23057;48.554;14.454;2024-03-29T07:22:10;11.50;99.90
41939;DHT22;23057;48.554;14.454;2024-03-29T07:24:41;11.90;99.90
41939;DHT22;23057;48.554;14.454;2024-03-29T07:27:11;12.30;99.90
41939;DHT22;23057;48.554;14.454;2024-03-29T07:29:44;12.70;99.90
41939;DHT22;23057;48.554;14.454;2024-03-29T07:32:16;12.90;99.90
41939;DHT22;23057;48.554;14.454;2024-03-29T07:34:47;12.80;99.90
41939;DHT22;23057;48.554;14.454;2024-03-29T07:37:17;13.00;99.90
41939;DHT22;23057;48.554;14.454;2024-03-29T07:39:48;13.60;99.90
41939;DHT22;23057;48.554;14.454;2024-03-29T07:42:20;13.00;99.90
41939;DHT22;23057;48.554;14.454;2024-03-29T07:44:50;12.90;99.90
41939;DHT22;23057;48.554;14.454;2024-03-29T07:47:21;13.30;99.90
41939;DHT22;23057;48.554;14.454;2024-03-29T07:49:55;12.30;99.90
41939;DHT22;23057;48.554;14.454;2024-03-29T07:52:26;12.40;99.90
41939;DHT22;23057;48.554;14.454;2024-03-29T07:54:57;11.80;99.90
41939;DHT22;23057;48.554;14.454;2024-03-29T07:57:28;11.90;99.90
41939;DHT22;23057;48.554;14.454;2024-03-29T07:59:59;12.10;99.90
41939;DHT22;23057;48.554;14.454;2024-03-29T08:02:31;11.60;99.90
41939;DHT22;23057;48.554;14.454;2024-03-29T08:05:03;11.90;99.90
41939;DHT22;23057;48.554;14.454;2024-03-29T08:07:35;12.20;99.90
41939;DHT22;23057;48.554;14.454;2024-03-29T08:10:12;12.40;99.90
41939;DHT22;23057;48.554;14.454;2024-03-29T08:12:44;12.60;99.90
41939;DHT22;23057;48.554;14.454;2024-03-29T08:15:15;12.10;99.90
41939;DHT22;23057;48.554;14.454;2024-03-29T08:17:49;12.30;99.90
41939;DHT22;23057;48.554;14.454;2024-03-29T08:20:21;12.50;99.90
41939;DHT22;23057;48.554;14.454;2024-03-29T08:22:54;12.30;99.90
41939;DHT22;23057;48.554;14.454;2024-03-29T08:25:28;12.10;99.90
41939;DHT22;23057;48.554;14.454;2024-03-29T08:27:59;12.10;99.90
41939;DHT22;23057;48.554;14.454;2024-03-29T08:30:30;12.30;99.90
41939;DHT22;23057;48.554;14.454;2024-03-29T08:33:05;12.10;99.90
41939;DHT22;23057;48.554;14.454;2024-03-29T08:35:36;12.50;99.90
41939;DHT22;23057;48.554;14.454;2024-03-29T08:38:07;12.90;99.90
41939;DHT22;23057;48.554;14.454;2024-03-29T08:40:38;13.40;99.90
41939;DHT22;23057;48.554;14.454;2024-03-29T08:43:12;13.40;99.90
41939;DHT22;23057;48.554;14.454;2024-03-29T08:45:46;13.60;99.90
41939;DHT22;23057;48.554;14.454;2024-03-29T08:48:18;13.90;99.90
41939;DHT22;23057;48.554;14.454;2024-03-29T08:50:49;14.00;99.90
41939;DHT22;23057;48.554;14.454;2024-03-29T08:53:20;14.10;99.90
41939;DHT22;23057;48.554;14.454;2024-03-29T08:55:52;13.90;99.90
41939;DHT22;23057;48.554;14.454;2024-03-29T08:58:23;13.90;99.90
41939;DHT22;23057;48.554;14.454;2024-03-29T09:00:55;14.00;99.90
41939;DHT22;23057;48.554;14.454;2024-03-29T09:03:26;14.30;99.90
41939;DHT22;23057;48.554;14.454;2024-03-29T09:05:57;14.40;99.90
41939;DHT22;23057;48.554;14.454;2024-03-29T09:08:28;14.50;99.90
41939;DHT22;23057;48.554;14.454;2024-03-29T09:10:59;14.20;99.90
41939;DHT22;23057;48.554;14.454;2024-03-29T09:13:31;13.80;99.90
41939;DHT22;23057;48.554;14.454;2024-03-29T09:16:02;14.00;99.90
41939;DHT22;23057;48.554;14.454;2024-03-29T09:18:34;14.00;99.90
41939;DHT22;23057;48.554;14.454;2024-03-29T09:21:04;13.40;99.90
41939;DHT22;23057;48.554;14.454;2024-03-29T09:23:36;13.60;99.90
41939;DHT22;23057;48.554;14.454;2024-03-29T09:26:11;13.90;99.90
41939;DHT22;23057;48.554;14.454;2024-03-29T09:28:44;14.30;99.90
41939;DHT22;23057;48.554;14.454;2024-03-29T09:31:15;14.50;99.90
41939;DHT22;23057;48.554;14.454;2024-03-29T09:33:46;14.20;99.90
41939;DHT22;23057;48.554;14.454;2024-03-29T09:36:23;14.10;99.90
41939;DHT22;23057;48.554;14.454;2024-03-29T09:38:54;14.10;99.90
41939;DHT22;23057;48.554;14.454;2024-03-29T09:41:25;14.00;99.90
41939;DHT22;23057;48.554;14.454;2024-03-29T09:43:59;13.90;99.90
41939;DHT22;23057;48.554;14.454;2024-03-29T09:46:33;13.70;99.90
41939;DHT22;23057;48.554;14.454;2024-03-29T09:49:06;14.50;99.90
41939;DHT22;23057;48.554;14.454;2024-03-29T09:51:37;14.70;99.90
41939;DHT22;23057;48.554;14.454;2024-03-29T09:54:10;14.10;99.90
41939;DHT22;23057;48.554;14.454;2024-03-29T09:56:43;13.90;99.90
41939;DHT22;23057;48.554;14.454;2024-03-29T09:59:15;14.60;99.90
41939;DHT22;23057;48.554;14.454;2024-03-29T10:01:46;14.80;99.90
41939;DHT22;23057;48.554;14.454;2024-03-29T10:04:23;14.70;99.90
41939;DHT22;23057;48.554;14.454;2024-03-29T10:06:55;15.20;99.90
41939;DHT22;23057;48.554;14.454;2024-03-29T10:09:26;15.30;99.90
41939;DHT22;23057;48.554;14.454;2024-03-29T10:11:59;15.30;99.90
41939;DHT22;23057;48.554;14.454;2024-03-29T10:14:31;15.30;99.90
41939;DHT22;23057;48.554;14.454;2024-03-29T10:17:04;15.50;99.90
41939;DHT22;23057;48.554;14.454;2024-03-29T10:19:34;15.50;99.90
41939;DHT22;23057;48.554;14.454;2024-03-29T10:22:06;15.40;99.90
41939;DHT22;23057;48.554;14.454;2024-03-29T10:24:38;15.30;99.90
41939;DHT22;23057;48.554;14.454;2024-03-29T10:27:09;15.10;99.90
41939;DHT22;23057;48.554;14.454;2024-03-29T10:29:40;15.30;99.90
41939;DHT22;23057;48.554;14.454;2024-03-29T10:32:10;15.20;99.90
41939;DHT22;23057;48.554;14.454;2024-03-29T10:34:41;15.20;99.90
41939;DHT22;23057;48.554;14.454;2024-03-29T10:37:12;15.10;99.90
41939;DHT22;23057;48.554;14.454;2024-03-29T10:39:43;15.50;99.90
41939;DHT22;23057;48.554;14.454;2024-03-29T10:42:15;15.80;99.90
41939;DHT22;23057;48.554;14.454;2024-03-29T10:44:48;15.90;99.90
41939;DHT22;23057;48.554;14.454;2024-03-29T10:47:19;16.00;99.90
41939;DHT22;23057;48.554;14.454;2024-03-29T10:49:51;16.40;99.90
41939;DHT22;23057;48.554;14.454;2024-03-29T10:52:22;16.70;99.90
41939;DHT22;23057;48.554;14.454;2024-03-29T10:54:55;16.60;99.90
41939;DHT22;23057;48.554;14.454;2024-03-29T10:57:27;16.60;99.90
41939;DHT22;23057;48.554;14.454;2024-03-29T11:00:13;16.50;99.90
41939;DHT22;23057;48.554;14.454;2024-03-29T11:03:12;15.60;99.90
41939;DHT22;23057;48.554;14.454;2024-03-29T11:05:50;15.40;99.90
41939;DHT22;23057;48.554;14.454;2024-03-29T11:08:24;15.00;99.90
41939;DHT22;23057;48.554;14.454;2024-03-29T11:11:04;15.10;99.90
41939;DHT22;23057;48.554;14.454;2024-03-29T11:16:33;15.50;99.90
41939;DHT22;23057;48.554;14.454;2024-03-29T11:19:04;16.30;99.90
41939;DHT22;23057;48.554;14.454;2024-03-29T11:21:36;16.50;99.90
41939;DHT22;23057;48.554;14.454;2024-03-29T11:24:10;16.20;99.90
41939;DHT22;23057;48.554;14.454;2024-03-29T11:26:40;15.90;99.90
41939;DHT22;23057;48.554;14.454;2024-03-29T11:29:19;15.60;99.90
41939;DHT22;23057;48.554;14.454;2024-03-29T11:31:58;15.50;99.90
41939;DHT22;23057;48.554;14.454;2024-03-29T11:34:32;16.40;99.90
41939;DHT22;23057;48.554;14.454;2024-03-29T11:37:11;16.20;99.90
41939;DHT22;23057;48.554;14.454;2024-03-29T11:39:47;15.80;99.90
41939;DHT22;23057;48.554;14.454;2024-03-29T11:42:18;15.70;99.90
41939;DHT22;23057;48.554;14.454;2024-03-29T11:44:49;15.60;99.90
41939;DHT22;23057;48.554;14.454;2024-03-29T11:47:20;15.50;99.90
41939;DHT22;23057;48.554;14.454;2024-03-29T11:49:56;15.70;99.90
41939;DHT22;23057;48.554;14.454;2024-03-29T11:52:29;16.00;99.90
41939;DHT22;23057;48.554;14.454;2024-03-29T11:55:00;16.00;99.90
41939;DHT22;23057;48.554;14.454;2024-03-29T11:57:30;15.80;99.90
41939;DHT22;23057;48.554;14.454;2024-03-29T12:00:01;15.70;99.90
41939;DHT22;23057;48.554;14.454;2024-03-29T12:02:35;15.80;99.90
41939;DHT22;23057;48.554;14.454;2024-03-29T12:05:09;16.10;99.90
41939;DHT22;23057;48.554;14.454;2024-03-29T12:07:41;16.60;99.90
41939;DHT22;23057;48.554;14.454;2024-03-29T12:10:12;16.90;99.90
41939;DHT22;23057;48.554;14.454;2024-03-29T12:12:43;17.20;99.90
41939;DHT22;23057;48.554;14.454;2024-03-29T12:15:14;17.00;99.90
41939;DHT22;23057;48.554;14.454;2024-03-29T12:17:54;17.00;99.90
41939;DHT22;23057;48.554;14.454;2024-03-29T12:20:26;16.90;99.90
41939;DHT22;23057;48.554;14.454;2024-03-29T12:23:02;16.80;99.90
41939;DHT22;23057;48.554;14.454;2024-03-29T12:25:40;17.30;99.90
41939;DHT22;23057;48.554;14.454;2024-03-29T12:28:12;17.50;99.90
41939;DHT22;23057;48.554;14.454;2024-03-29T12:30:46;17.70;99.90
41939;DHT22;23057;48.554;14.454;2024-03-29T12:33:20;18.00;99.90
41939;DHT22;23057;48.554;14.454;2024-03-29T12:35:53;18.10;99.90
41939;DHT22;23057;48.554;14.454;2024-03-29T12:38:25;18.10;99.90
41939;DHT22;23057;48.554;14.454;2024-03-29T12:40:56;17.70;99.90
41939;DHT22;23057;48.554;14.454;2024-03-29T12:43:27;17.50;99.90
41939;DHT22;23057;48.554;14.454;2024-03-29T12:45:59;17.70;99.90
41939;DHT22;23057;48.554;14.454;2024-03-29T12:48:30;18.10;99.90
41939;DHT22;23057;48.554;14.454;2024-03-29T12:51:02;18.50;99.90
41939;DHT22;23057;48.554;14.454;2024-03-29T12:53:33;18.40;99.90
41939;DHT22;23057;48.554;14.454;2024-03-29T12:56:04;18.10;99.90
41939;DHT22;23057;48.554;14.454;2024-03-29T12:58:35;18.30;99.90
41939;DHT22;23057;48.554;14.454;2024-03-29T13:01:07;18.60;99.90
41939;DHT22;23057;48.554;14.454;2024-03-29T13:03:40;18.70;99.90
41939;DHT22;23057;48.554;14.454;2024-03-29T13:06:12;19.00;99.90
41939;DHT22;23057;48.554;14.454;2024-03-29T13:08:43;18.60;99.90
41939;DHT22;23057;48.554;14.454;2024-03-29T13:11:14;18.40;99.90
41939;DHT22;23057;48.554;14.454;2024-03-29T13:13:45;18.90;99.90
41939;DHT22;23057;48.554;14.454;2024-03-29T13:16:16;18.90;99.90
41939;DHT22;23057;48.554;14.454;2024-03-29T13:18:47;19.20;99.90
41939;DHT22;23057;48.554;14.454;2024-03-29T13:21:17;19.20;99.90
41939;DHT22;23057;48.554;14.454;2024-03-29T13:23:48;19.00;99.90
41939;DHT22;23057;48.554;14.454;2024-03-29T13:26:19;18.60;99.90
41939;DHT22;23057;48.554;14.454;2024-03-29T13:28:50;18.50;99.90
41939;DHT22;23057;48.554;14.454;2024-03-29T13:31:21;18.70;99.90
41939;DHT22;23057;48.554;14.454;2024-03-29T13:33:53;18.90;99.90
41939;DHT22;23057;48.554;14.454;2024-03-29T13:36:34;19.50;99.90
41939;DHT22;23057;48.554;14.454;2024-03-29T13:39:05;19.40;99.90
41939;DHT22;23057;48.554;14.454;2024-03-29T13:41:38;19.10;99.90
41939;DHT22;23057;48.554;14.454;2024-03-29T13:44:10;18.80;99.90
41939;DHT22;23057;48.554;14.454;2024-03-29T13:46:40;18.50;99.90
41939;DHT22;23057;48.554;14.454;2024-03-29T13:49:11;19.20;99.90
41939;DHT22;23057;48.554;14.454;2024-03-29T13:51:43;19.40;99.90
41939;DHT22;23057;48.554;14.454;2024-03-29T13:54:14;19.30;99.90
41939;DHT22;23057;48.554;14.454;2024-03-29T13:56:45;19.20;99.90
41939;DHT22;23057;48.554;14.454;2024-03-29T13:59:16;19.10;99.90
41939;DHT22;23057;48.554;14.454;2024-03-29T14:01:46;19.20;99.90
41939;DHT22;23057;48.554;14.454;2024-03-29T14:04:17;19.50;99.90
41939;DHT22;23057;48.554;14.454;2024-03-29T14:06:48;19.70;99.90
41939;DHT22;23057;48.554;14.454;2024-03-29T14:09:19;19.40;99.90
41939;DHT22;23057;48.554;14.454;2024-03-29T14:11:51;19.20;99.90
41939;DHT22;23057;48.554;14.454;2024-03-29T14:14:22;19.20;99.90
41939;DHT22;23057;48.554;14.454;2024-03-29T14:16:53;19.00;99.90
41939;DHT22;23057;48.554;14.454;2024-03-29T14:19:24;19.10;99.90
41939;DHT22;23057;48.554;14.454;2024-03-29T14:21:57;19.70;99.90
41939;DHT22;23057;48.554;14.454;2024-03-29T14:24:28;19.80;99.90
41939;DHT22;23057;48.554;14.454;2024-03-29T14:27:01;19.50;99.90
41939;DHT22;23057;48.554;14.454;2024-03-29T14:29:34;19.50;99.90
41939;DHT22;23057;48.554;14.454;2024-03-29T14:32:05;19.70;99.90
41939;DHT22;23057;48.554;14.454;2024-03-29T14:34:36;19.60;99.90
41939;DHT22;23057;48.554;14.454;2024-03-29T14:37:10;19.40;99.90
41939;DHT22;23057;48.554;14.454;2024-03-29T14:39:43;19.60;99.90
41939;DHT22;23057;48.554;14.454;2024-03-29T14:42:15;19.50;99.90
41939;DHT22;23057;48.554;14.454;2024-03-29T14:44:52;19.70;99.90
41939;DHT22;23057;48.554;14.454;2024-03-29T14:47:23;19.70;99.90
41939;DHT22;23057;48.554;14.454;2024-03-29T14:49:54;19.30;99.90
41939;DHT22;23057;48.554;14.454;2024-03-29T14:52:24;19.40;99.90
41939;DHT22;23057;48.554;14.454;2024-03-29T14:54:55;19.30;99.90
41939;DHT22;23057;48.554;14.454;2024-03-29T14:57:26;19.30;99.90
41939;DHT22;23057;48.554;14.454;2024-03-29T14:59:58;19.30;99.90
41939;DHT22;23057;48.554;14.454;2024-03-29T15:02:28;19.30;99.90
41939;DHT22;23057;48.554;14.454;2024-03-29T15:04:59;19.20;99.90
41939;DHT22;23057;48.554;14.454;2024-03-29T15:07:30;19.10;99.90
41939;DHT22;23057;48.554;14.454;2024-03-29T15:10:02;19.10;99.90
41939;DHT22;23057;48.554;14.454;2024-03-29T15:12:38;19.30;99.90
41939;DHT22;23057;48.554;14.454;2024-03-29T15:15:09;19.20;99.90
41939;DHT22;23057;48.554;14.454;2024-03-29T15:17:40;19.50;99.90
41939;DHT22;23057;48.554;14.454;2024-03-29T15:20:11;19.60;99.90
41939;DHT22;23057;48.554;14.454;2024-03-29T15:22:42;19.60;99.90
41939;DHT22;23057;48.554;14.454;2024-03-29T15:25:14;19.40;99.90
41939;DHT22;23057;48.554;14.454;2024-03-29T15:27:45;19.40;99.90
41939;DHT22;23057;48.554;14.454;2024-03-29T15:30:35;19.30;99.90
41939;DHT22;23057;48.554;14.454;2024-03-29T15:33:11;19.30;99.90
41939;DHT22;23057;48.554;14.454;2024-03-29T15:35:43;19.20;99.90
41939;DHT22;23057;48.554;14.454;2024-03-29T15:38:14;19.10;99.90
41939;DHT22;23057;48.554;14.454;2024-03-29T15:40:53;19.10;99.90
41939;DHT22;23057;48.554;14.454;2024-03-29T15:43:26;19.00;99.90
41939;DHT22;23057;48.554;14.454;2024-03-29T15:45:58;19.00;99.90
41939;DHT22;23057;48.554;14.454;2024-03-29T15:48:29;18.90;99.90
41939;DHT22;23057;48.554;14.454;2024-03-29T15:51:01;18.90;99.90
41939;DHT22;23057;48.554;14.454;2024-03-29T15:53:32;18.80;99.90